sensor_id;sensor_type;location;lat;lon;timestamp;P1;durP1;ratioP1;P2;durP2;ratioP2
75768;SDS011;64379;48.888;8.330;2022-11-20T00:00:55;9.38;;;4.53;;
75768;SDS011;64379;48.888;8.330;2022-11-20T00:03:21;7.93;;;4.05;;
75768;SDS011;64379;48.888;8.330;2022-11-20T00:05:47;8.88;;;4.03;;
75768;SDS011;64379;48.888;8.330;2022-11-20T00:08:12;9.45;;;4.13;;
75768;SDS011;64379;48.888;8.330;2022-11-20T00:10:39;9.85;;;3.72;;
75768;SDS011;64379;48.888;8.330;2022-11-20T00:13:05;8.35;;;3.60;;
75768;SDS011;64379;48.888;8.330;2022-11-20T00:15:31;8.02;;;3.80;;
75768;SDS011;64379;48.888;8.330;2022-11-20T00:17:57;7.75;;;3.58;;
75768;SDS011;64379;48.888;8.330;2022-11-20T00:20:23;7.22;;;3.30;;
75768;SDS011;64379;48.888;8.330;2022-11-20T00:22:49;8.27;;;3.22;;
75768;SDS011;64379;48.888;8.330;2022-11-20T00:25:14;9.65;;;3.30;;
75768;SDS011;64379;48.888;8.330;2022-11-20T00:27:40;8.43;;;3.42;;
75768;SDS011;64379;48.888;8.330;2022-11-20T00:30:06;7.00;;;3.17;;
75768;SDS011;64379;48.888;8.330;2022-11-20T00:32:32;5.72;;;2.90;;
75768;SDS011;64379;48.888;8.330;2022-11-20T00:34:58;6.75;;;3.15;;
75768;SDS011;64379;48.888;8.330;2022-11-20T00:37:23;6.32;;;3.20;;
75768;SDS011;64379;48.888;8.330;2022-11-20T00:39:49;7.45;;;3.55;;
75768;SDS011;64379;48.888;8.330;2022-11-20T00:42:14;6.35;;;3.10;;
75768;SDS011;64379;48.888;8.330;2022-11-20T00:44:40;9.07;;;3.72;;
75768;SDS011;64379;48.888;8.330;2022-11-20T00:47:05;7.22;;;3.45;;
75768;SDS011;64379;48.888;8.330;2022-11-20T00:49:31;7.90;;;3.65;;
75768;SDS011;64379;48.888;8.330;2022-11-20T00:51:56;7.28;;;3.17;;
75768;SDS011;64379;48.888;8.330;2022-11-20T00:54:22;8.52;;;3.80;;
75768;SDS011;64379;48.888;8.330;2022-11-20T00:56:48;9.00;;;3.78;;
75768;SDS011;64379;48.888;8.330;2022-11-20T00:59:14;6.68;;;3.40;;
75768;SDS011;64379;48.888;8.330;2022-11-20T01:01:39;8.35;;;3.72;;
75768;SDS011;64379;48.888;8.330;2022-11-20T01:04:05;7.80;;;3.42;;
75768;SDS011;64379;48.888;8.330;2022-11-20T01:06:35;6.82;;;3.55;;
75768;SDS011;64379;48.888;8.330;2022-11-20T01:09:06;8.60;;;3.80;;
75768;SDS011;64379;48.888;8.330;2022-11-20T01:11:37;10.45;;;3.63;;
75768;SDS011;64379;48.888;8.330;2022-11-20T01:14:05;9.13;;;3.60;;
75768;SDS011;64379;48.888;8.330;2022-11-20T01:16:33;10.25;;;3.85;;
75768;SDS011;64379;48.888;8.330;2022-11-20T01:19:01;8.38;;;3.55;;
75768;SDS011;64379;48.888;8.330;2022-11-20T01:21:30;8.90;;;3.70;;
75768;SDS011;64379;48.888;8.330;2022-11-20T01:23:57;7.80;;;3.30;;
75768;SDS011;64379;48.888;8.330;2022-11-20T01:26:25;9.27;;;3.75;;
75768;SDS011;64379;48.888;8.330;2022-11-20T01:28:52;8.63;;;3.47;;
75768;SDS011;64379;48.888;8.330;2022-11-20T01:31:22;9.80;;;3.90;;
75768;SDS011;64379;48.888;8.330;2022-11-20T01:33:50;8.05;;;3.63;;
75768;SDS011;64379;48.888;8.330;2022-11-20T01:36:18;9.88;;;3.75;;
75768;SDS011;64379;48.888;8.330;2022-11-20T01:38:46;7.13;;;3.30;;
75768;SDS011;64379;48.888;8.330;2022-11-20T01:41:12;7.75;;;3.92;;
75768;SDS011;64379;48.888;8.330;2022-11-20T01:43:59;6.90;;;2.83;;
75768;SDS011;64379;48.888;8.330;2022-11-20T01:46:25;6.85;;;3.15;;
75768;SDS011;64379;48.888;8.330;2022-11-20T01:48:54;8.23;;;3.10;;
75768;SDS011;64379;48.888;8.330;2022-11-20T01:54:02;6.93;;;2.80;;
75768;SDS011;64379;48.888;8.330;2022-11-20T01:56:31;6.88;;;2.83;;
75768;SDS011;64379;48.888;8.330;2022-11-20T01:59:01;7.15;;;2.95;;
75768;SDS011;64379;48.888;8.330;2022-11-20T02:01:29;7.55;;;2.63;;
75768;SDS011;64379;48.888;8.330;2022-11-20T02:03:55;6.22;;;2.72;;
75768;SDS011;64379;48.888;8.330;2022-11-20T02:08:57;6.97;;;2.58;;
75768;SDS011;64379;48.888;8.330;2022-11-20T02:11:23;6.15;;;2.65;;
75768;SDS011;64379;48.888;8.330;2022-11-20T02:13:49;6.07;;;2.50;;
75768;SDS011;64379;48.888;8.330;2022-11-20T02:18:50;6.18;;;2.50;;
75768;SDS011;64379;48.888;8.330;2022-11-20T02:24:14;8.05;;;2.80;;
75768;SDS011;64379;48.888;8.330;2022-11-20T02:26:53;8.30;;;2.53;;
75768;SDS011;64379;48.888;8.330;2022-11-20T02:29:25;7.50;;;2.72;;
75768;SDS011;64379;48.888;8.330;2022-11-20T02:31:54;7.72;;;2.80;;
75768;SDS011;64379;48.888;8.330;2022-11-20T02:34:20;6.32;;;2.60;;
75768;SDS011;64379;48.888;8.330;2022-11-20T02:36:46;5.70;;;2.30;;
75768;SDS011;64379;48.888;8.330;2022-11-20T02:39:14;6.60;;;2.42;;
75768;SDS011;64379;48.888;8.330;2022-11-20T02:41:41;7.13;;;2.63;;
75768;SDS011;64379;48.888;8.330;2022-11-20T02:44:08;7.55;;;2.80;;
75768;SDS011;64379;48.888;8.330;2022-11-20T02:46:34;6.18;;;2.60;;
75768;SDS011;64379;48.888;8.330;2022-11-20T02:49:00;5.40;;;2.33;;
75768;SDS011;64379;48.888;8.330;2022-11-20T02:51:27;6.53;;;2.58;;
75768;SDS011;64379;48.888;8.330;2022-11-20T02:53:53;6.25;;;2.45;;
75768;SDS011;64379;48.888;8.330;2022-11-20T02:56:19;4.78;;;2.50;;
75768;SDS011;64379;48.888;8.330;2022-11-20T02:58:47;6.72;;;2.50;;
75768;SDS011;64379;48.888;8.330;2022-11-20T03:01:12;5.30;;;2.40;;
75768;SDS011;64379;48.888;8.330;2022-11-20T03:03:38;6.45;;;2.35;;
75768;SDS011;64379;48.888;8.330;2022-11-20T03:06:04;7.70;;;2.55;;
75768;SDS011;64379;48.888;8.330;2022-11-20T03:08:29;8.02;;;2.50;;
75768;SDS011;64379;48.888;8.330;2022-11-20T03:10:55;9.57;;;2.60;;
75768;SDS011;64379;48.888;8.330;2022-11-20T03:13:21;6.00;;;2.53;;
75768;SDS011;64379;48.888;8.330;2022-11-20T03:15:46;5.95;;;2.47;;
75768;SDS011;64379;48.888;8.330;2022-11-20T03:18:12;5.63;;;2.45;;
75768;SDS011;64379;48.888;8.330;2022-11-20T03:20:38;6.82;;;2.53;;
75768;SDS011;64379;48.888;8.330;2022-11-20T03:23:04;5.13;;;2.33;;
75768;SDS011;64379;48.888;8.330;2022-11-20T03:25:30;5.93;;;2.53;;
75768;SDS011;64379;48.888;8.330;2022-11-20T03:27:55;7.07;;;2.40;;
75768;SDS011;64379;48.888;8.330;2022-11-20T03:30:21;5.63;;;2.30;;
75768;SDS011;64379;48.888;8.330;2022-11-20T03:32:47;7.88;;;2.60;;
75768;SDS011;64379;48.888;8.330;2022-11-20T03:35:12;7.18;;;2.63;;
75768;SDS011;64379;48.888;8.330;2022-11-20T03:37:38;6.50;;;2.60;;
75768;SDS011;64379;48.888;8.330;2022-11-20T03:40:04;6.95;;;2.90;;
75768;SDS011;64379;48.888;8.330;2022-11-20T03:42:30;6.63;;;2.70;;
75768;SDS011;64379;48.888;8.330;2022-11-20T03:45:11;6.00;;;2.50;;
75768;SDS011;64379;48.888;8.330;2022-11-20T03:47:38;7.28;;;2.45;;
75768;SDS011;64379;48.888;8.330;2022-11-20T03:50:04;7.07;;;2.60;;
75768;SDS011;64379;48.888;8.330;2022-11-20T03:52:30;5.43;;;2.60;;
75768;SDS011;64379;48.888;8.330;2022-11-20T03:54:56;5.25;;;2.42;;
75768;SDS011;64379;48.888;8.330;2022-11-20T03:57:21;7.78;;;2.58;;
75768;SDS011;64379;48.888;8.330;2022-11-20T03:59:47;8.95;;;2.80;;
75768;SDS011;64379;48.888;8.330;2022-11-20T04:02:12;6.80;;;2.83;;
75768;SDS011;64379;48.888;8.330;2022-11-20T04:04:38;5.82;;;2.90;;
75768;SDS011;64379;48.888;8.330;2022-11-20T04:07:03;5.90;;;2.60;;
75768;SDS011;64379;48.888;8.330;2022-11-20T04:09:29;6.70;;;2.60;;
75768;SDS011;64379;48.888;8.330;2022-11-20T04:11:54;5.88;;;2.45;;
75768;SDS011;64379;48.888;8.330;2022-11-20T04:14:20;6.68;;;2.63;;
75768;SDS011;64379;48.888;8.330;2022-11-20T04:16:46;6.80;;;2.95;;
75768;SDS011;64379;48.888;8.330;2022-11-20T04:19:15;7.05;;;3.00;;
75768;SDS011;64379;48.888;8.330;2022-11-20T04:21:41;6.47;;;2.97;;
75768;SDS011;64379;48.888;8.330;2022-11-20T04:24:08;7.43;;;2.72;;
75768;SDS011;64379;48.888;8.330;2022-11-20T04:26:35;6.50;;;2.85;;
75768;SDS011;64379;48.888;8.330;2022-11-20T04:29:02;6.07;;;2.53;;
75768;SDS011;64379;48.888;8.330;2022-11-20T04:31:29;6.57;;;2.30;;
75768;SDS011;64379;48.888;8.330;2022-11-20T04:34:06;6.20;;;2.38;;
75768;SDS011;64379;48.888;8.330;2022-11-20T04:36:32;5.53;;;2.70;;
75768;SDS011;64379;48.888;8.330;2022-11-20T04:38:59;6.22;;;2.88;;
75768;SDS011;64379;48.888;8.330;2022-11-20T04:41:27;9.10;;;2.75;;
75768;SDS011;64379;48.888;8.330;2022-11-20T04:43:55;6.05;;;2.47;;
75768;SDS011;64379;48.888;8.330;2022-11-20T04:46:24;5.95;;;2.50;;
75768;SDS011;64379;48.888;8.330;2022-11-20T04:48:51;6.85;;;2.53;;
75768;SDS011;64379;48.888;8.330;2022-11-20T04:51:17;7.90;;;2.55;;
75768;SDS011;64379;48.888;8.330;2022-11-20T04:53:42;7.30;;;2.45;;
75768;SDS011;64379;48.888;8.330;2022-11-20T04:56:09;5.45;;;2.47;;
75768;SDS011;64379;48.888;8.330;2022-11-20T04:58:36;8.02;;;2.45;;
75768;SDS011;64379;48.888;8.330;2022-11-20T05:03:41;6.22;;;2.42;;
75768;SDS011;64379;48.888;8.330;2022-11-20T05:06:14;5.65;;;2.20;;
75768;SDS011;64379;48.888;8.330;2022-11-20T05:08:41;5.63;;;2.40;;
75768;SDS011;64379;48.888;8.330;2022-11-20T05:11:11;5.35;;;2.15;;
75768;SDS011;64379;48.888;8.330;2022-11-20T05:13:38;4.13;;;1.73;;
75768;SDS011;64379;48.888;8.330;2022-11-20T05:16:06;6.15;;;1.95;;
75768;SDS011;64379;48.888;8.330;2022-11-20T05:18:35;7.05;;;2.10;;
75768;SDS011;64379;48.888;8.330;2022-11-20T05:21:04;4.63;;;1.90;;
75768;SDS011;64379;48.888;8.330;2022-11-20T05:23:31;4.78;;;2.30;;
75768;SDS011;64379;48.888;8.330;2022-11-20T05:25:57;4.18;;;1.75;;
75768;SDS011;64379;48.888;8.330;2022-11-20T05:28:23;5.65;;;1.70;;
75768;SDS011;64379;48.888;8.330;2022-11-20T05:30:49;4.13;;;1.80;;
75768;SDS011;64379;48.888;8.330;2022-11-20T05:33:15;4.93;;;1.80;;
75768;SDS011;64379;48.888;8.330;2022-11-20T05:35:41;5.18;;;1.73;;
75768;SDS011;64379;48.888;8.330;2022-11-20T05:38:06;4.00;;;1.67;;
75768;SDS011;64379;48.888;8.330;2022-11-20T05:40:32;4.03;;;1.75;;
75768;SDS011;64379;48.888;8.330;2022-11-20T05:42:57;4.28;;;1.80;;
75768;SDS011;64379;48.888;8.330;2022-11-20T05:45:23;5.22;;;1.90;;
75768;SDS011;64379;48.888;8.330;2022-11-20T05:47:48;5.10;;;1.70;;
75768;SDS011;64379;48.888;8.330;2022-11-20T05:50:14;4.05;;;1.70;;
75768;SDS011;64379;48.888;8.330;2022-11-20T05:52:40;5.03;;;1.73;;
75768;SDS011;64379;48.888;8.330;2022-11-20T05:55:06;6.05;;;1.73;;
75768;SDS011;64379;48.888;8.330;2022-11-20T05:57:32;5.43;;;1.70;;
75768;SDS011;64379;48.888;8.330;2022-11-20T05:59:58;3.95;;;1.52;;
75768;SDS011;64379;48.888;8.330;2022-11-20T06:02:23;4.53;;;1.67;;
75768;SDS011;64379;48.888;8.330;2022-11-20T06:04:49;3.95;;;1.65;;
75768;SDS011;64379;48.888;8.330;2022-11-20T06:07:17;4.18;;;1.60;;
75768;SDS011;64379;48.888;8.330;2022-11-20T06:09:42;3.45;;;1.48;;
75768;SDS011;64379;48.888;8.330;2022-11-20T06:12:08;3.33;;;1.38;;
75768;SDS011;64379;48.888;8.330;2022-11-20T06:14:33;3.88;;;1.60;;
75768;SDS011;64379;48.888;8.330;2022-11-20T06:16:59;3.83;;;1.70;;
75768;SDS011;64379;48.888;8.330;2022-11-20T06:19:25;3.72;;;1.55;;
75768;SDS011;64379;48.888;8.330;2022-11-20T06:21:50;3.65;;;1.42;;
75768;SDS011;64379;48.888;8.330;2022-11-20T06:24:16;3.72;;;1.70;;
75768;SDS011;64379;48.888;8.330;2022-11-20T06:26:42;4.57;;;1.90;;
75768;SDS011;64379;48.888;8.330;2022-11-20T06:29:08;5.00;;;1.77;;
75768;SDS011;64379;48.888;8.330;2022-11-20T06:31:33;5.28;;;1.60;;
75768;SDS011;64379;48.888;8.330;2022-11-20T06:34:02;5.18;;;1.73;;
75768;SDS011;64379;48.888;8.330;2022-11-20T06:36:29;3.85;;;1.52;;
75768;SDS011;64379;48.888;8.330;2022-11-20T06:38:54;5.22;;;1.70;;
75768;SDS011;64379;48.888;8.330;2022-11-20T06:41:20;6.13;;;1.83;;
75768;SDS011;64379;48.888;8.330;2022-11-20T06:43:47;4.45;;;1.67;;
75768;SDS011;64379;48.888;8.330;2022-11-20T06:46:14;3.95;;;1.48;;
75768;SDS011;64379;48.888;8.330;2022-11-20T06:48:44;4.53;;;1.67;;
75768;SDS011;64379;48.888;8.330;2022-11-20T06:51:10;3.88;;;1.50;;
75768;SDS011;64379;48.888;8.330;2022-11-20T06:53:36;6.78;;;1.98;;
75768;SDS011;64379;48.888;8.330;2022-11-20T06:56:05;4.38;;;1.40;;
75768;SDS011;64379;48.888;8.330;2022-11-20T06:58:32;4.70;;;1.50;;
75768;SDS011;64379;48.888;8.330;2022-11-20T07:00:59;4.95;;;1.30;;
75768;SDS011;64379;48.888;8.330;2022-11-20T07:03:26;3.60;;;1.42;;
75768;SDS011;64379;48.888;8.330;2022-11-20T07:05:54;5.32;;;1.80;;
75768;SDS011;64379;48.888;8.330;2022-11-20T07:08:21;4.50;;;1.30;;
75768;SDS011;64379;48.888;8.330;2022-11-20T07:10:46;2.58;;;1.17;;
75768;SDS011;64379;48.888;8.330;2022-11-20T07:13:12;4.15;;;1.55;;
75768;SDS011;64379;48.888;8.330;2022-11-20T07:15:38;3.70;;;1.38;;
75768;SDS011;64379;48.888;8.330;2022-11-20T07:18:04;4.20;;;1.40;;
75768;SDS011;64379;48.888;8.330;2022-11-20T07:20:29;3.72;;;1.40;;
75768;SDS011;64379;48.888;8.330;2022-11-20T07:22:55;2.88;;;1.30;;
75768;SDS011;64379;48.888;8.330;2022-11-20T07:25:22;4.60;;;1.27;;
75768;SDS011;64379;48.888;8.330;2022-11-20T07:27:48;8.43;;;1.70;;
75768;SDS011;64379;48.888;8.330;2022-11-20T07:30:14;5.22;;;1.50;;
75768;SDS011;64379;48.888;8.330;2022-11-20T07:32:45;3.45;;;1.48;;
75768;SDS011;64379;48.888;8.330;2022-11-20T07:35:12;3.20;;;1.40;;
75768;SDS011;64379;48.888;8.330;2022-11-20T07:37:38;5.10;;;1.60;;
75768;SDS011;64379;48.888;8.330;2022-11-20T07:40:04;3.60;;;1.30;;
75768;SDS011;64379;48.888;8.330;2022-11-20T07:42:29;4.05;;;1.52;;
75768;SDS011;64379;48.888;8.330;2022-11-20T07:44:55;3.58;;;1.33;;
75768;SDS011;64379;48.888;8.330;2022-11-20T07:47:21;3.45;;;1.50;;
75768;SDS011;64379;48.888;8.330;2022-11-20T07:49:46;3.08;;;1.50;;
75768;SDS011;64379;48.888;8.330;2022-11-20T07:52:12;6.57;;;1.70;;
75768;SDS011;64379;48.888;8.330;2022-11-20T07:54:37;4.50;;;1.50;;
75768;SDS011;64379;48.888;8.330;2022-11-20T07:57:03;3.42;;;1.20;;
75768;SDS011;64379;48.888;8.330;2022-11-20T07:59:28;3.75;;;1.42;;
75768;SDS011;64379;48.888;8.330;2022-11-20T08:01:54;3.78;;;1.35;;
75768;SDS011;64379;48.888;8.330;2022-11-20T08:04:20;7.13;;;1.63;;
75768;SDS011;64379;48.888;8.330;2022-11-20T08:06:48;4.78;;;1.70;;
75768;SDS011;64379;48.888;8.330;2022-11-20T08:09:13;3.60;;;1.30;;
75768;SDS011;64379;48.888;8.330;2022-11-20T08:11:39;3.92;;;1.40;;
75768;SDS011;64379;48.888;8.330;2022-11-20T08:14:24;3.90;;;1.50;;
75768;SDS011;64379;48.888;8.330;2022-11-20T08:16:49;5.15;;;2.10;;
75768;SDS011;64379;48.888;8.330;2022-11-20T08:19:16;4.30;;;1.63;;
75768;SDS011;64379;48.888;8.330;2022-11-20T08:21:43;2.75;;;1.30;;
75768;SDS011;64379;48.888;8.330;2022-11-20T08:24:09;3.38;;;1.45;;
75768;SDS011;64379;48.888;8.330;2022-11-20T08:26:36;4.93;;;1.52;;
75768;SDS011;64379;48.888;8.330;2022-11-20T08:29:03;3.03;;;1.40;;
75768;SDS011;64379;48.888;8.330;2022-11-20T08:31:29;3.03;;;1.40;;
75768;SDS011;64379;48.888;8.330;2022-11-20T08:33:55;3.47;;;1.45;;
75768;SDS011;64379;48.888;8.330;2022-11-20T08:36:21;4.22;;;1.60;;
75768;SDS011;64379;48.888;8.330;2022-11-20T08:38:53;4.63;;;1.42;;
75768;SDS011;64379;48.888;8.330;2022-11-20T08:41:19;3.42;;;1.45;;
75768;SDS011;64379;48.888;8.330;2022-11-20T08:43:52;4.60;;;1.83;;
75768;SDS011;64379;48.888;8.330;2022-11-20T08:46:18;5.35;;;1.60;;
75768;SDS011;64379;48.888;8.330;2022-11-20T08:48:44;2.92;;;1.40;;
75768;SDS011;64379;48.888;8.330;2022-11-20T08:51:10;4.05;;;1.65;;
75768;SDS011;64379;48.888;8.330;2022-11-20T08:53:36;6.57;;;1.75;;
75768;SDS011;64379;48.888;8.330;2022-11-20T08:56:03;9.60;;;1.45;;
75768;SDS011;64379;48.888;8.330;2022-11-20T08:58:29;5.32;;;1.80;;
75768;SDS011;64379;48.888;8.330;2022-11-20T09:00:54;4.53;;;1.65;;
75768;SDS011;64379;48.888;8.330;2022-11-20T09:03:20;4.18;;;1.83;;
75768;SDS011;64379;48.888;8.330;2022-11-20T09:05:46;4.68;;;1.80;;
75768;SDS011;64379;48.888;8.330;2022-11-20T09:08:11;3.60;;;1.50;;
75768;SDS011;64379;48.888;8.330;2022-11-20T09:10:37;4.97;;;1.85;;
75768;SDS011;64379;48.888;8.330;2022-11-20T09:13:04;4.30;;;1.83;;
75768;SDS011;64379;48.888;8.330;2022-11-20T09:15:30;4.35;;;1.70;;
75768;SDS011;64379;48.888;8.330;2022-11-20T09:17:57;4.47;;;1.83;;
75768;SDS011;64379;48.888;8.330;2022-11-20T09:20:24;5.75;;;2.10;;
75768;SDS011;64379;48.888;8.330;2022-11-20T09:22:51;4.53;;;2.08;;
75768;SDS011;64379;48.888;8.330;2022-11-20T09:25:17;6.25;;;2.08;;
75768;SDS011;64379;48.888;8.330;2022-11-20T09:27:43;5.75;;;2.20;;
75768;SDS011;64379;48.888;8.330;2022-11-20T09:30:11;5.85;;;2.22;;
75768;SDS011;64379;48.888;8.330;2022-11-20T09:32:41;5.70;;;2.03;;
75768;SDS011;64379;48.888;8.330;2022-11-20T09:35:08;6.63;;;2.85;;
75768;SDS011;64379;48.888;8.330;2022-11-20T09:37:35;6.93;;;2.53;;
75768;SDS011;64379;48.888;8.330;2022-11-20T09:40:00;6.35;;;2.90;;
75768;SDS011;64379;48.888;8.330;2022-11-20T09:45:05;5.72;;;2.40;;
75768;SDS011;64379;48.888;8.330;2022-11-20T09:50:43;6.03;;;2.33;;
75768;SDS011;64379;48.888;8.330;2022-11-20T09:53:25;6.65;;;2.42;;
75768;SDS011;64379;48.888;8.330;2022-11-20T09:56:21;5.78;;;2.42;;
75768;SDS011;64379;48.888;8.330;2022-11-20T09:58:48;5.57;;;2.50;;
75768;SDS011;64379;48.888;8.330;2022-11-20T10:01:20;6.78;;;2.60;;
75768;SDS011;64379;48.888;8.330;2022-11-20T10:03:55;6.57;;;2.55;;
75768;SDS011;64379;48.888;8.330;2022-11-20T10:06:39;6.00;;;2.35;;
75768;SDS011;64379;48.888;8.330;2022-11-20T10:20:19;6.25;;;2.47;;
75768;SDS011;64379;48.888;8.330;2022-11-20T10:22:50;6.43;;;2.47;;
75768;SDS011;64379;48.888;8.330;2022-11-20T10:25:19;7.70;;;2.50;;
75768;SDS011;64379;48.888;8.330;2022-11-20T10:27:52;6.55;;;2.50;;
75768;SDS011;64379;48.888;8.330;2022-11-20T10:30:28;6.53;;;2.35;;
75768;SDS011;64379;48.888;8.330;2022-11-20T10:32:57;5.22;;;2.30;;
75768;SDS011;64379;48.888;8.330;2022-11-20T10:38:18;5.97;;;2.35;;
75768;SDS011;64379;48.888;8.330;2022-11-20T10:40:51;6.47;;;2.20;;
75768;SDS011;64379;48.888;8.330;2022-11-20T10:43:41;4.97;;;2.25;;
75768;SDS011;64379;48.888;8.330;2022-11-20T10:46:15;6.03;;;2.20;;
75768;SDS011;64379;48.888;8.330;2022-11-20T10:48:44;5.45;;;1.90;;
75768;SDS011;64379;48.888;8.330;2022-11-20T10:51:21;5.05;;;1.85;;
75768;SDS011;64379;48.888;8.330;2022-11-20T10:59:08;4.05;;;1.70;;
75768;SDS011;64379;48.888;8.330;2022-11-20T11:01:55;5.45;;;2.03;;
75768;SDS011;64379;48.888;8.330;2022-11-20T11:04:38;5.10;;;1.95;;
75768;SDS011;64379;48.888;8.330;2022-11-20T11:07:16;3.95;;;1.70;;
75768;SDS011;64379;48.888;8.330;2022-11-20T11:30:43;5.18;;;1.98;;
75768;SDS011;64379;48.888;8.330;2022-11-20T11:33:21;5.07;;;1.95;;
75768;SDS011;64379;48.888;8.330;2022-11-20T11:36:21;5.53;;;1.70;;
75768;SDS011;64379;48.888;8.330;2022-11-20T11:38:58;5.65;;;2.00;;
75768;SDS011;64379;48.888;8.330;2022-11-20T11:41:34;4.35;;;1.58;;
75768;SDS011;64379;48.888;8.330;2022-11-20T11:44:14;5.40;;;1.50;;
75768;SDS011;64379;48.888;8.330;2022-11-20T11:47:03;6.15;;;2.00;;
75768;SDS011;64379;48.888;8.330;2022-11-20T11:49:34;5.15;;;1.80;;
75768;SDS011;64379;48.888;8.330;2022-11-20T11:52:15;6.45;;;1.52;;
75768;SDS011;64379;48.888;8.330;2022-11-20T11:57:36;6.10;;;1.60;;
75768;SDS011;64379;48.888;8.330;2022-11-20T12:00:16;5.05;;;1.80;;
75768;SDS011;64379;48.888;8.330;2022-11-20T12:07:51;3.92;;;1.60;;
75768;SDS011;64379;48.888;8.330;2022-11-20T12:10:56;4.50;;;1.60;;
75768;SDS011;64379;48.888;8.330;2022-11-20T12:16:36;3.72;;;1.50;;
75768;SDS011;64379;48.888;8.330;2022-11-20T12:19:04;5.45;;;1.45;;
75768;SDS011;64379;48.888;8.330;2022-11-20T12:24:35;5.38;;;1.65;;
75768;SDS011;64379;48.888;8.330;2022-11-20T12:32:44;6.10;;;1.52;;
75768;SDS011;64379;48.888;8.330;2022-11-20T12:49:27;3.45;;;1.13;;
75768;SDS011;64379;48.888;8.330;2022-11-20T12:58:17;3.00;;;0.95;;
75768;SDS011;64379;48.888;8.330;2022-11-20T13:00:30;5.15;;;0.90;;
75768;SDS011;64379;48.888;8.330;2022-11-20T13:08:26;4.38;;;1.13;;
75768;SDS011;64379;48.888;8.330;2022-11-20T13:16:08;2.72;;;0.90;;
75768;SDS011;64379;48.888;8.330;2022-11-20T13:18:44;3.50;;;1.10;;
75768;SDS011;64379;48.888;8.330;2022-11-20T13:21:34;2.53;;;0.70;;
75768;SDS011;64379;48.888;8.330;2022-11-20T13:26:33;2.58;;;1.00;;
75768;SDS011;64379;48.888;8.330;2022-11-20T13:29:02;3.92;;;0.80;;
75768;SDS011;64379;48.888;8.330;2022-11-20T13:31:36;2.42;;;0.73;;
75768;SDS011;64379;48.888;8.330;2022-11-20T13:34:11;3.05;;;0.65;;
75768;SDS011;64379;48.888;8.330;2022-11-20T13:36:50;2.83;;;0.65;;
75768;SDS011;64379;48.888;8.330;2022-11-20T13:39:31;2.35;;;0.55;;
75768;SDS011;64379;48.888;8.330;2022-11-20T13:42:24;4.75;;;0.82;;
75768;SDS011;64379;48.888;8.330;2022-11-20T13:44:55;7.75;;;0.90;;
75768;SDS011;64379;48.888;8.330;2022-11-20T13:47:27;1.90;;;0.70;;
75768;SDS011;64379;48.888;8.330;2022-11-20T13:49:55;3.53;;;0.73;;
75768;SDS011;64379;48.888;8.330;2022-11-20T14:00:26;5.13;;;0.95;;
75768;SDS011;64379;48.888;8.330;2022-11-20T14:05:40;4.47;;;0.95;;
75768;SDS011;64379;48.888;8.330;2022-11-20T14:08:20;4.03;;;0.90;;
75768;SDS011;64379;48.888;8.330;2022-11-20T14:10:50;3.22;;;0.98;;
75768;SDS011;64379;48.888;8.330;2022-11-20T14:13:17;4.28;;;0.90;;
75768;SDS011;64379;48.888;8.330;2022-11-20T14:18:19;3.90;;;0.90;;
75768;SDS011;64379;48.888;8.330;2022-11-20T14:20:46;4.50;;;1.00;;
75768;SDS011;64379;48.888;8.330;2022-11-20T14:23:12;3.85;;;0.75;;
75768;SDS011;64379;48.888;8.330;2022-11-20T14:25:48;3.88;;;1.00;;
75768;SDS011;64379;48.888;8.330;2022-11-20T14:28:19;2.40;;;0.73;;
75768;SDS011;64379;48.888;8.330;2022-11-20T14:30:51;1.98;;;0.63;;
75768;SDS011;64379;48.888;8.330;2022-11-20T14:33:17;2.88;;;0.88;;
75768;SDS011;64379;48.888;8.330;2022-11-20T14:35:48;3.05;;;0.68;;
75768;SDS011;64379;48.888;8.330;2022-11-20T14:38:18;2.20;;;0.70;;
75768;SDS011;64379;48.888;8.330;2022-11-20T14:40:49;1.92;;;0.90;;
75768;SDS011;64379;48.888;8.330;2022-11-20T14:43:16;4.63;;;0.93;;
75768;SDS011;64379;48.888;8.330;2022-11-20T14:45:59;1.63;;;0.70;;
75768;SDS011;64379;48.888;8.330;2022-11-20T14:48:32;4.85;;;0.95;;
75768;SDS011;64379;48.888;8.330;2022-11-20T14:51:03;2.85;;;0.77;;
75768;SDS011;64379;48.888;8.330;2022-11-20T14:53:29;3.63;;;0.70;;
75768;SDS011;64379;48.888;8.330;2022-11-20T14:55:56;3.33;;;0.85;;
75768;SDS011;64379;48.888;8.330;2022-11-20T14:58:30;4.10;;;0.85;;
75768;SDS011;64379;48.888;8.330;2022-11-20T15:01:01;2.58;;;0.75;;
75768;SDS011;64379;48.888;8.330;2022-11-20T15:03:36;4.93;;;1.00;;
75768;SDS011;64379;48.888;8.330;2022-11-20T15:06:04;4.20;;;1.15;;
75768;SDS011;64379;48.888;8.330;2022-11-20T15:08:34;5.13;;;1.10;;
75768;SDS011;64379;48.888;8.330;2022-11-20T15:10:59;2.88;;;1.30;;
75768;SDS011;64379;48.888;8.330;2022-11-20T15:16:03;3.72;;;1.00;;
75768;SDS011;64379;48.888;8.330;2022-11-20T15:18:39;4.32;;;0.90;;
75768;SDS011;64379;48.888;8.330;2022-11-20T15:21:16;4.30;;;0.95;;
75768;SDS011;64379;48.888;8.330;2022-11-20T15:23:43;2.58;;;0.95;;
75768;SDS011;64379;48.888;8.330;2022-11-20T15:26:10;2.65;;;1.10;;
75768;SDS011;64379;48.888;8.330;2022-11-20T15:28:41;2.85;;;1.20;;
75768;SDS011;64379;48.888;8.330;2022-11-20T15:31:12;3.80;;;1.02;;
75768;SDS011;64379;48.888;8.330;2022-11-20T15:33:43;3.28;;;1.20;;
75768;SDS011;64379;48.888;8.330;2022-11-20T15:36:09;4.22;;;0.88;;
75768;SDS011;64379;48.888;8.330;2022-11-20T15:38:35;2.45;;;0.98;;
75768;SDS011;64379;48.888;8.330;2022-11-20T15:41:01;2.22;;;0.80;;
75768;SDS011;64379;48.888;8.330;2022-11-20T15:43:27;3.80;;;0.90;;
75768;SDS011;64379;48.888;8.330;2022-11-20T15:45:54;4.40;;;1.27;;
75768;SDS011;64379;48.888;8.330;2022-11-20T15:48:24;4.50;;;1.10;;
75768;SDS011;64379;48.888;8.330;2022-11-20T15:50:57;2.65;;;0.90;;
75768;SDS011;64379;48.888;8.330;2022-11-20T15:53:36;5.30;;;1.02;;
75768;SDS011;64379;48.888;8.330;2022-11-20T15:56:09;1.40;;;0.60;;
75768;SDS011;64379;48.888;8.330;2022-11-20T15:58:37;2.60;;;0.93;;
75768;SDS011;64379;48.888;8.330;2022-11-20T16:01:02;3.40;;;0.82;;
75768;SDS011;64379;48.888;8.330;2022-11-20T16:03:28;3.00;;;1.00;;
75768;SDS011;64379;48.888;8.330;2022-11-20T16:06:02;3.17;;;1.00;;
75768;SDS011;64379;48.888;8.330;2022-11-20T16:08:28;2.40;;;0.88;;
75768;SDS011;64379;48.888;8.330;2022-11-20T16:10:54;3.03;;;1.10;;
75768;SDS011;64379;48.888;8.330;2022-11-20T16:13:19;5.30;;;1.00;;
75768;SDS011;64379;48.888;8.330;2022-11-20T16:16:05;4.78;;;0.90;;
75768;SDS011;64379;48.888;8.330;2022-11-20T16:18:45;2.60;;;1.00;;
75768;SDS011;64379;48.888;8.330;2022-11-20T16:21:10;4.38;;;1.02;;
75768;SDS011;64379;48.888;8.330;2022-11-20T16:23:38;1.92;;;0.80;;
75768;SDS011;64379;48.888;8.330;2022-11-20T16:26:11;3.97;;;1.10;;
75768;SDS011;64379;48.888;8.330;2022-11-20T16:28:39;2.85;;;1.10;;
75768;SDS011;64379;48.888;8.330;2022-11-20T16:31:12;3.75;;;1.30;;
75768;SDS011;64379;48.888;8.330;2022-11-20T16:33:39;4.18;;;1.33;;
75768;SDS011;64379;48.888;8.330;2022-11-20T16:36:12;2.92;;;1.13;;
75768;SDS011;64379;48.888;8.330;2022-11-20T16:38:39;9.55;;;1.52;;
75768;SDS011;64379;48.888;8.330;2022-11-20T16:41:05;4.32;;;1.20;;
75768;SDS011;64379;48.888;8.330;2022-11-20T16:43:38;4.35;;;1.13;;
75768;SDS011;64379;48.888;8.330;2022-11-20T16:46:10;3.70;;;1.20;;
75768;SDS011;64379;48.888;8.330;2022-11-20T16:48:35;2.97;;;1.02;;
75768;SDS011;64379;48.888;8.330;2022-11-20T16:51:01;3.22;;;1.10;;
75768;SDS011;64379;48.888;8.330;2022-11-20T16:53:26;7.47;;;1.60;;
75768;SDS011;64379;48.888;8.330;2022-11-20T16:55:52;6.15;;;1.50;;
75768;SDS011;64379;48.888;8.330;2022-11-20T16:58:18;5.63;;;1.70;;
75768;SDS011;64379;48.888;8.330;2022-11-20T17:00:43;5.20;;;1.60;;
75768;SDS011;64379;48.888;8.330;2022-11-20T17:03:09;5.43;;;1.70;;
75768;SDS011;64379;48.888;8.330;2022-11-20T17:05:35;4.53;;;1.50;;